createdAt,value
2022-07-25T00:00:10.562Z,19.30
2022-07-25T00:01:32.475Z,19.89
2022-07-25T00:02:34.250Z,20.39
2022-07-25T00:03:36.249Z,20.83
2022-07-25T00:04:41.740Z,21.22
2022-07-25T00:05:44.396Z,21.54
2022-07-25T00:06:46.690Z,21.65
2022-07-25T00:07:49.059Z,21.45
2022-07-25T00:08:50.767Z,21.06
2022-07-25T00:09:52.448Z,20.66
2022-07-25T00:10:54.189Z,20.29
2022-07-25T00:11:55.870Z,19.95
2022-07-25T00:12:57.577Z,19.66
2022-07-25T00:13:59.361Z,19.42
2022-07-25T00:15:01.014Z,19.20
2022-07-25T00:16:02.761Z,19.10
2022-07-25T00:17:04.442Z,19.33
2022-07-25T00:18:06.241Z,19.76
2022-07-25T00:19:07.922Z,20.24
2022-07-25T00:20:09.844Z,20.67
2022-07-25T00:21:12.625Z,21.01
2022-07-25T00:22:14.364Z,21.31
2022-07-25T00:23:16.040Z,21.44
2022-07-25T00:24:18.285Z,21.26
2022-07-25T00:25:19.960Z,20.91
2022-07-25T00:26:21.605Z,20.53
2022-07-25T00:27:23.337Z,20.18
2022-07-25T00:28:25.044Z,19.87
2022-07-25T00:29:26.717Z,19.60
2022-07-25T00:30:28.546Z,19.37
2022-07-25T00:31:30.287Z,19.17
2022-07-25T00:32:32.094Z,19.20
2022-07-25T00:33:33.942Z,19.54
2022-07-25T00:34:35.678Z,20.02
2022-07-25T00:35:37.344Z,20.48
2022-07-25T00:36:39.219Z,20.88
2022-07-25T00:37:40.879Z,21.21
2022-07-25T00:38:42.611Z,21.45
2022-07-25T00:39:44.395Z,21.43
2022-07-25T00:40:46.126Z,21.13
2022-07-25T00:41:56.053Z,20.70
2022-07-25T00:42:57.757Z,20.32
2022-07-25T00:43:59.582Z,19.98
2022-07-25T00:45:01.368Z,19.68
2022-07-25T00:46:03.455Z,19.41
2022-07-25T00:47:05.843Z,19.18
2022-07-25T00:48:08.260Z,19.12
2022-07-25T00:49:10.077Z,19.41
2022-07-25T00:50:11.946Z,19.88
2022-07-25T00:51:15.241Z,20.34
2022-07-25T00:52:17.344Z,20.76
2022-07-25T00:53:19.342Z,21.09
2022-07-25T00:54:22.019Z,21.36
2022-07-25T00:55:25.293Z,21.44
2022-07-25T00:56:26.995Z,21.20
2022-07-25T00:57:28.703Z,20.82
2022-07-25T00:58:30.433Z,20.43
2022-07-25T00:59:32.117Z,20.07
2022-07-25T01:00:33.871Z,19.76
2022-07-25T01:01:37.322Z,19.47
2022-07-25T01:02:39.433Z,19.22
2022-07-25T01:03:41.184Z,19.01
2022-07-25T01:04:42.927Z,19.00
2022-07-25T01:05:44.822Z,19.34
2022-07-25T01:06:46.882Z,19.81
2022-07-25T01:07:48.701Z,20.28
2022-07-25T01:08:51.003Z,20.68
2022-07-25T01:09:53.489Z,21.01
2022-07-25T01:10:55.422Z,21.28
2022-07-25T01:11:57.094Z,21.35
2022-07-25T01:12:59.031Z,21.11
2022-07-25T01:14:00.748Z,20.74
2022-07-25T01:15:02.475Z,20.36
2022-07-25T01:16:04.897Z,20.00
2022-07-25T01:17:06.732Z,19.67
2022-07-25T01:18:08.507Z,19.40
2022-07-25T01:19:10.362Z,19.16
2022-07-25T01:20:23.927Z,19.02
2022-07-25T01:21:26.477Z,19.30
2022-07-25T01:22:28.189Z,19.78
2022-07-25T01:23:30.019Z,20.26
2022-07-25T01:24:33.879Z,20.67
2022-07-25T01:25:35.688Z,21.02
2022-07-25T01:26:38.384Z,21.31
2022-07-25T01:27:41.830Z,21.42
2022-07-25T01:28:43.528Z,21.21
2022-07-25T01:29:45.206Z,20.85
2022-07-25T01:30:46.946Z,20.47
2022-07-25T01:31:48.681Z,20.12
2022-07-25T01:32:50.772Z,19.81
2022-07-25T01:33:52.470Z,19.54
2022-07-25T01:34:54.165Z,19.32
2022-07-25T01:35:55.981Z,19.11
2022-07-25T01:36:57.619Z,18.96
2022-07-25T01:37:59.320Z,19.09
2022-07-25T01:39:01.151Z,19.51
2022-07-25T01:40:05.951Z,20.03
2022-07-25T01:41:07.631Z,20.53
2022-07-25T01:42:09.382Z,20.94
2022-07-25T01:43:12.121Z,21.28
2022-07-25T01:44:13.886Z,21.49
2022-07-25T01:45:15.715Z,21.37
2022-07-25T01:46:18.450Z,21.03
2022-07-25T01:47:20.335Z,20.65
2022-07-25T01:48:22.078Z,20.29
2022-07-25T01:49:26.686Z,19.97
2022-07-25T01:50:28.463Z,19.67
2022-07-25T01:51:30.166Z,19.41
2022-07-25T01:52:32.081Z,19.19
2022-07-25T01:53:33.790Z,19.02
2022-07-25T01:54:37.767Z,19.15
2022-07-25T01:55:39.521Z,19.57
2022-07-25T01:56:46.982Z,20.05
2022-07-25T01:57:50.306Z,20.54
2022-07-25T01:58:52.408Z,20.91
2022-07-25T01:59:54.057Z,21.22
2022-07-25T02:00:57.046Z,21.40
2022-07-25T02:01:59.402Z,21.28
2022-07-25T02:03:19.415Z,20.95
2022-07-25T02:04:21.132Z,20.44
2022-07-25T02:05:22.860Z,20.08
2022-07-25T02:06:24.527Z,19.76
2022-07-25T02:07:26.309Z,19.48
2022-07-25T02:08:29.660Z,19.23
2022-07-25T02:09:32.113Z,19.06
2022-07-25T02:10:33.858Z,19.24
2022-07-25T02:11:36.338Z,19.67
2022-07-25T02:12:38.115Z,20.16
2022-07-25T02:13:39.796Z,20.61
2022-07-25T02:14:41.492Z,20.98
2022-07-25T02:15:43.231Z,21.28
2022-07-25T02:16:44.980Z,21.40
2022-07-25T02:17:46.823Z,21.19
2022-07-25T02:18:48.458Z,20.84
2022-07-25T02:19:50.295Z,20.45
2022-07-25T02:20:51.996Z,20.11
2022-07-25T02:21:53.774Z,19.80
2022-07-25T02:22:55.559Z,19.53
2022-07-25T02:23:57.223Z,19.30
2022-07-25T02:24:58.951Z,19.09
2022-07-25T02:26:00.627Z,18.97
2022-07-25T02:27:02.343Z,19.16
2022-07-25T02:28:04.360Z,19.60
2022-07-25T02:29:06.092Z,20.11
2022-07-25T02:30:08.405Z,20.56
2022-07-25T02:31:10.605Z,20.95
2022-07-25T02:32:12.339Z,21.25
2022-07-25T02:33:14.076Z,21.34
2022-07-25T02:34:16.160Z,21.13
2022-07-25T02:35:17.911Z,20.76
2022-07-25T02:36:19.735Z,20.39
2022-07-25T02:37:21.399Z,20.05
2022-07-25T02:38:23.226Z,19.75
2022-07-25T02:39:25.379Z,19.48
2022-07-25T02:40:27.165Z,19.25
2022-07-25T02:41:28.855Z,19.05
2022-07-25T02:42:30.546Z,18.89
2022-07-25T02:43:32.289Z,18.96
2022-07-25T02:44:33.986Z,19.36
2022-07-25T02:45:35.752Z,19.87
2022-07-25T02:46:37.522Z,20.36
2022-07-25T02:47:39.316Z,20.76
2022-07-25T02:48:41.294Z,21.10
2022-07-25T02:49:43.072Z,21.31
2022-07-25T02:50:44.752Z,21.21
2022-07-25T02:51:46.429Z,20.89
2022-07-25T02:52:48.202Z,20.50
2022-07-25T02:54:09.230Z,20.13
2022-07-25T02:55:12.055Z,19.71
2022-07-25T02:56:14.225Z,19.44
2022-07-25T02:57:17.184Z,19.20
2022-07-25T02:58:18.880Z,19.00
2022-07-25T02:59:20.562Z,18.83
2022-07-25T03:00:22.732Z,18.96
2022-07-25T03:01:25.123Z,19.38
2022-07-25T03:02:27.001Z,19.91
2022-07-25T03:03:29.027Z,20.39
2022-07-25T03:04:31.319Z,20.82
2022-07-25T03:05:33.263Z,21.16
2022-07-25T03:06:35.010Z,21.35
2022-07-25T03:07:37.261Z,21.20
2022-07-25T03:08:38.939Z,20.86
2022-07-25T03:09:40.713Z,20.48
2022-07-25T03:10:42.795Z,20.14
2022-07-25T03:11:44.465Z,19.81
2022-07-25T03:12:46.215Z,19.54
2022-07-25T03:13:47.978Z,19.31
2022-07-25T03:14:50.536Z,19.12
2022-07-25T03:15:52.223Z,18.99
2022-07-25T03:16:54.588Z,19.16
2022-07-25T03:17:56.355Z,19.61
2022-07-25T03:18:57.990Z,20.14
2022-07-25T03:19:59.881Z,20.62
2022-07-25T03:21:02.213Z,21.03
2022-07-25T03:22:03.891Z,21.35
2022-07-25T03:23:05.665Z,21.45
2022-07-25T03:24:07.703Z,21.23
2022-07-25T03:25:15.615Z,20.88
2022-07-25T03:26:23.314Z,20.45
2022-07-25T03:27:26.909Z,20.12
2022-07-25T03:28:28.553Z,19.83
2022-07-25T03:29:30.190Z,19.58
2022-07-25T03:30:32.053Z,19.36
2022-07-25T03:31:34.470Z,19.17
2022-07-25T03:32:36.253Z,18.99
2022-07-25T03:33:37.902Z,19.00
2022-07-25T03:34:39.597Z,19.34
2022-07-25T03:35:41.452Z,19.84
2022-07-25T03:36:43.286Z,20.35
2022-07-25T03:37:45.605Z,20.77
2022-07-25T03:38:47.311Z,21.13
2022-07-25T03:39:49.166Z,21.37
2022-07-25T03:40:51.077Z,21.30
2022-07-25T03:41:53.017Z,21.00
2022-07-25T03:42:55.025Z,20.63
2022-07-25T03:43:56.696Z,20.27
2022-07-25T03:44:58.414Z,19.93
2022-07-25T03:46:00.245Z,19.64
2022-07-25T03:47:01.935Z,19.38
2022-07-25T03:48:03.804Z,19.16
2022-07-25T03:49:05.790Z,18.96
2022-07-25T03:50:07.787Z,18.82
2022-07-25T03:51:09.600Z,18.98
2022-07-25T03:52:11.278Z,19.42
2022-07-25T03:53:12.960Z,19.94
2022-07-25T03:54:15.235Z,20.41
2022-07-25T03:55:16.889Z,20.81
2022-07-25T03:56:18.935Z,21.14
2022-07-25T03:57:20.639Z,21.36
2022-07-25T03:58:22.514Z,21.27
2022-07-25T03:59:24.258Z,20.95
2022-07-25T04:00:25.991Z,20.58
2022-07-25T04:01:29.281Z,20.22
2022-07-25T04:02:31.049Z,19.89
2022-07-25T04:03:33.074Z,19.62
2022-07-25T04:04:34.798Z,19.38
2022-07-25T04:05:36.459Z,19.17
2022-07-25T04:06:39.850Z,18.99
2022-07-25T04:07:41.513Z,18.95
2022-07-25T04:08:43.169Z,19.26
2022-07-25T04:09:44.960Z,19.77
2022-07-25T04:10:46.661Z,20.29
2022-07-25T04:11:48.686Z,20.73
2022-07-25T04:12:50.377Z,21.12
2022-07-25T04:13:52.110Z,21.43
2022-07-25T04:14:53.819Z,21.51
2022-07-25T04:15:55.674Z,21.29
2022-07-25T04:17:00.242Z,20.91
2022-07-25T04:18:02.016Z,20.53
2022-07-25T04:19:06.287Z,20.19
2022-07-25T04:20:08.664Z,19.89
2022-07-25T04:21:10.865Z,19.63
2022-07-25T04:22:12.674Z,19.42
2022-07-25T04:23:14.375Z,19.23
2022-07-25T04:24:16.051Z,19.07
2022-07-25T04:25:17.999Z,19.02
2022-07-25T04:26:20.524Z,19.33
2022-07-25T04:27:22.298Z,19.84
2022-07-25T04:28:27.165Z,20.35
2022-07-25T04:29:29.177Z,20.83
2022-07-25T04:30:31.125Z,21.21
2022-07-25T04:31:32.884Z,21.51
2022-07-25T04:32:34.586Z,21.65
2022-07-25T04:33:40.704Z,21.48
2022-07-25T04:34:43.772Z,21.11
2022-07-25T04:35:45.680Z,20.74
2022-07-25T04:36:47.352Z,20.41
2022-07-25T04:37:49.632Z,20.12
2022-07-25T04:38:51.522Z,19.86
2022-07-25T04:39:53.208Z,19.64
2022-07-25T04:40:54.887Z,19.45
2022-07-25T04:41:56.595Z,19.28
2022-07-25T04:42:58.367Z,19.19
2022-07-25T04:44:00.136Z,19.44
2022-07-25T04:45:01.800Z,19.93
2022-07-25T04:46:03.571Z,20.46
2022-07-25T04:47:05.779Z,20.94
2022-07-25T04:48:07.665Z,21.37
2022-07-25T04:49:09.494Z,21.70
2022-07-25T04:50:11.400Z,21.86
2022-07-25T04:51:13.142Z,21.71
2022-07-25T04:52:14.909Z,21.40
2022-07-25T04:53:16.814Z,21.05
2022-07-25T04:54:18.509Z,20.73
2022-07-25T04:55:20.281Z,20.44
2022-07-25T04:56:21.919Z,20.21
2022-07-25T04:57:23.684Z,20.00
2022-07-25T04:58:25.392Z,19.83
2022-07-25T04:59:27.197Z,19.68
2022-07-25T05:00:28.906Z,19.72
2022-07-25T05:01:30.648Z,20.10
2022-07-25T05:02:32.598Z,20.63
2022-07-25T05:03:34.653Z,21.14
2022-07-25T05:04:36.363Z,21.59
2022-07-25T05:05:46.521Z,22.01
2022-07-25T05:06:48.261Z,22.22
2022-07-25T05:07:55.725Z,22.13
2022-07-25T05:08:57.392Z,21.79
2022-07-25T05:09:59.113Z,21.45
2022-07-25T05:11:00.901Z,21.13
2022-07-25T05:12:02.567Z,20.85
2022-07-25T05:13:04.842Z,20.61
2022-07-25T05:14:06.811Z,20.40
2022-07-25T05:15:09.440Z,20.23
2022-07-25T05:16:11.167Z,20.09
2022-07-25T05:17:12.915Z,19.98
2022-07-25T05:18:14.808Z,20.07
2022-07-25T05:19:16.582Z,20.49
2022-07-25T05:20:18.385Z,21.02
2022-07-25T05:21:20.097Z,21.55
2022-07-25T05:22:25.186Z,22.00
2022-07-25T05:23:30.239Z,22.42
2022-07-25T05:24:36.084Z,22.62
2022-07-25T05:25:37.796Z,22.49
2022-07-25T05:26:39.505Z,22.21
2022-07-25T05:27:41.711Z,21.91
2022-07-25T05:28:43.375Z,21.63
2022-07-25T05:29:45.107Z,21.38
2022-07-25T05:30:46.819Z,21.17
2022-07-25T05:31:48.649Z,20.98
2022-07-25T05:32:50.364Z,20.84
2022-07-25T05:33:52.136Z,20.71
2022-07-25T05:34:53.845Z,20.60
2022-07-25T05:35:55.539Z,20.50
2022-07-25T05:36:57.224Z,20.40
2022-07-25T05:37:58.924Z,20.32
2022-07-25T05:39:00.793Z,20.25
2022-07-25T05:40:03.057Z,20.18
2022-07-25T05:41:05.396Z,20.23
2022-07-25T05:42:07.978Z,20.61
2022-07-25T05:43:09.629Z,21.19
2022-07-25T05:44:11.287Z,21.76
2022-07-25T05:45:13.009Z,22.28
2022-07-25T05:46:15.586Z,22.70
2022-07-25T05:47:17.468Z,22.99
2022-07-25T05:48:19.152Z,22.96
2022-07-25T05:49:20.848Z,22.71
2022-07-25T05:50:22.715Z,22.41
2022-07-25T05:51:27.463Z,22.11
2022-07-25T05:52:29.419Z,21.84
2022-07-25T05:53:31.271Z,21.63
2022-07-25T05:54:34.173Z,21.44
2022-07-25T05:55:35.878Z,21.29
2022-07-25T05:56:42.622Z,21.15
2022-07-25T05:57:44.324Z,21.05
2022-07-25T05:58:46.488Z,20.95
2022-07-25T05:59:48.210Z,20.87
2022-07-25T06:00:51.156Z,20.80
2022-07-25T06:01:52.979Z,20.74
2022-07-25T06:02:58.636Z,20.70
2022-07-25T06:04:00.786Z,20.66
2022-07-25T06:05:02.458Z,20.62
2022-07-25T06:06:04.786Z,20.58
2022-07-25T06:07:06.466Z,20.57
2022-07-25T06:08:08.137Z,20.56
2022-07-25T06:09:09.778Z,20.54
2022-07-25T06:10:11.444Z,20.66
2022-07-25T06:11:13.201Z,21.10
2022-07-25T06:12:14.934Z,21.71
2022-07-25T06:13:16.615Z,22.32
2022-07-25T06:14:22.101Z,22.87
2022-07-25T06:15:26.979Z,23.27
2022-07-25T06:16:29.407Z,23.32
2022-07-25T06:17:32.700Z,23.14
2022-07-25T06:18:34.916Z,22.89
2022-07-25T06:19:36.678Z,22.65
2022-07-25T06:20:38.335Z,22.46
2022-07-25T06:21:40.063Z,22.29
2022-07-25T06:22:41.837Z,22.16
2022-07-25T06:23:43.531Z,22.05
2022-07-25T06:24:45.695Z,21.97
2022-07-25T06:25:50.156Z,21.91
2022-07-25T06:26:52.465Z,21.85
2022-07-25T06:27:54.145Z,21.81
2022-07-25T06:28:55.990Z,21.78
2022-07-25T06:29:57.782Z,21.76
2022-07-25T06:30:59.670Z,21.73
2022-07-25T06:32:02.348Z,21.70
2022-07-25T06:33:04.086Z,21.69
2022-07-25T06:34:06.134Z,21.68
2022-07-25T06:35:08.351Z,21.67
2022-07-25T06:36:10.571Z,21.66
2022-07-25T06:37:12.343Z,21.66
2022-07-25T06:38:14.079Z,21.66
2022-07-25T06:39:15.702Z,21.66
2022-07-25T06:40:17.376Z,21.67
2022-07-25T06:41:19.059Z,21.67
2022-07-25T06:42:20.753Z,21.68
2022-07-25T06:43:24.418Z,21.69
2022-07-25T06:44:27.262Z,21.71
2022-07-25T06:45:28.920Z,21.73
2022-07-25T06:46:32.845Z,21.75
2022-07-25T06:47:36.098Z,21.78
2022-07-25T06:48:38.273Z,21.80
2022-07-25T06:49:42.218Z,21.82
2022-07-25T06:50:44.728Z,21.85
2022-07-25T06:51:46.406Z,21.87
2022-07-25T06:52:49.009Z,21.90
2022-07-25T06:53:50.944Z,21.92
2022-07-25T06:54:52.679Z,21.96
2022-07-25T06:55:54.366Z,21.98
2022-07-25T06:56:56.066Z,22.02
2022-07-25T06:57:57.784Z,22.03
2022-07-25T06:59:00.493Z,22.06
2022-07-25T07:00:06.679Z,22.09
2022-07-25T07:01:08.436Z,22.12
2022-07-25T07:02:10.203Z,22.15
2022-07-25T07:03:11.899Z,22.18
2022-07-25T07:04:13.626Z,22.21
2022-07-25T07:05:15.361Z,22.24
2022-07-25T07:06:17.228Z,22.25
2022-07-25T07:07:19.171Z,22.28
2022-07-25T07:08:20.900Z,22.31
2022-07-25T07:09:22.741Z,22.33
2022-07-25T07:10:25.158Z,22.36
2022-07-25T07:11:26.821Z,22.38
2022-07-25T07:12:28.490Z,22.40
2022-07-25T07:13:31.188Z,22.42
2022-07-25T07:14:32.894Z,22.43
2022-07-25T07:15:35.003Z,22.46
2022-07-25T07:16:36.797Z,22.49
2022-07-25T07:17:38.777Z,22.51
2022-07-25T07:18:40.523Z,22.53
2022-07-25T07:19:44.581Z,22.56
2022-07-25T07:20:47.293Z,22.58
2022-07-25T07:21:51.355Z,22.60
2022-07-25T07:22:53.380Z,22.64
2022-07-25T07:23:55.043Z,22.66
2022-07-25T07:24:58.643Z,22.69
2022-07-25T07:26:00.337Z,22.72
2022-07-25T07:27:02.066Z,22.74
2022-07-25T07:28:04.445Z,22.76
2022-07-25T07:29:06.370Z,22.77
2022-07-25T07:30:09.580Z,22.78
2022-07-25T07:31:16.782Z,22.79
2022-07-25T07:32:19.363Z,22.81
2022-07-25T07:33:21.246Z,22.83
2022-07-25T07:34:22.986Z,22.84
2022-07-25T07:35:25.410Z,22.87
2022-07-25T07:36:29.554Z,22.89
2022-07-25T07:37:36.591Z,22.93
2022-07-25T07:38:40.551Z,22.96
2022-07-25T07:39:42.494Z,22.99
2022-07-25T07:40:44.303Z,23.02
2022-07-25T07:41:45.947Z,23.05
2022-07-25T07:42:50.204Z,23.08
2022-07-25T07:43:51.910Z,23.11
2022-07-25T07:44:53.578Z,23.14
2022-07-25T07:45:56.070Z,23.17
2022-07-25T07:47:01.648Z,23.20
2022-07-25T07:48:03.505Z,23.23
2022-07-25T07:49:05.608Z,23.27
2022-07-25T07:50:08.682Z,23.31
2022-07-25T07:51:10.371Z,23.34
2022-07-25T07:52:12.011Z,23.37
2022-07-25T07:53:13.656Z,23.40
2022-07-25T07:54:33.982Z,23.42
2022-07-25T07:55:44.324Z,23.46
2022-07-25T07:56:46.326Z,23.49
2022-07-25T07:57:48.206Z,23.53
2022-07-25T07:58:50.480Z,23.55
2022-07-25T07:59:52.142Z,23.58
2022-07-25T08:00:54.361Z,23.62
2022-07-25T08:01:56.111Z,23.66
2022-07-25T08:02:59.772Z,23.69
2022-07-25T08:04:01.740Z,23.72
2022-07-25T08:05:03.657Z,23.74
2022-07-25T08:06:05.746Z,23.76
2022-07-25T08:07:07.542Z,23.79
2022-07-25T08:08:12.043Z,23.81
2022-07-25T08:09:13.894Z,23.83
2022-07-25T08:10:15.958Z,23.85
2022-07-25T08:11:17.588Z,23.88
2022-07-25T08:12:21.041Z,23.89
2022-07-25T08:13:25.729Z,23.92
2022-07-25T08:14:27.367Z,23.97
2022-07-25T08:15:29.393Z,24.00
2022-07-25T08:16:31.166Z,24.04
2022-07-25T08:17:32.922Z,24.08
2022-07-25T08:18:35.980Z,24.13
2022-07-25T08:19:37.623Z,24.17
2022-07-25T08:20:39.881Z,24.20
2022-07-25T08:21:41.566Z,24.24
2022-07-25T08:22:45.971Z,24.28
2022-07-25T08:23:48.015Z,24.31
2022-07-25T08:24:49.952Z,24.35
2022-07-25T08:25:52.441Z,24.40
2022-07-25T08:26:54.112Z,24.43
2022-07-25T08:27:55.896Z,24.48
2022-07-25T08:29:17.711Z,24.52
2022-07-25T08:30:19.407Z,24.57
2022-07-25T08:31:21.192Z,24.61
2022-07-25T08:32:22.947Z,24.65
2022-07-25T08:33:25.478Z,24.69
2022-07-25T08:34:27.117Z,24.72
2022-07-25T08:35:30.853Z,24.75
2022-07-25T08:36:34.828Z,24.78
2022-07-25T08:37:36.701Z,24.80
2022-07-25T08:38:38.487Z,24.83
2022-07-25T08:39:41.623Z,24.86
2022-07-25T08:40:43.456Z,24.89
2022-07-25T08:41:46.058Z,24.92
2022-07-25T08:42:48.378Z,24.97
2022-07-25T08:43:51.724Z,25.00
2022-07-25T08:44:59.945Z,25.03
2022-07-25T08:46:02.501Z,25.06
2022-07-25T08:47:04.956Z,25.08
2022-07-25T08:48:11.533Z,25.11
2022-07-25T08:49:13.667Z,25.13
2022-07-25T08:50:18.272Z,25.14
2022-07-25T08:51:20.466Z,25.17
2022-07-25T08:52:23.422Z,25.21
2022-07-25T08:53:34.675Z,25.24
2022-07-25T08:54:37.416Z,25.28
2022-07-25T08:55:39.586Z,25.32
2022-07-25T08:56:41.283Z,25.36
2022-07-25T08:57:46.366Z,25.42
2022-07-25T08:58:49.414Z,25.47
2022-07-25T08:59:51.128Z,25.51
2022-07-25T09:00:52.906Z,25.56
2022-07-25T09:01:54.578Z,25.59
2022-07-25T09:03:00.565Z,25.62
2022-07-25T09:04:03.893Z,25.67
2022-07-25T09:05:06.298Z,25.71
2022-07-25T09:06:19.268Z,25.76
2022-07-25T09:07:32.677Z,25.81
2022-07-25T09:08:34.365Z,25.86
2022-07-25T09:09:39.538Z,25.90
2022-07-25T09:10:47.117Z,25.92
2022-07-25T09:11:49.995Z,25.96
2022-07-25T09:12:57.275Z,25.99
2022-07-25T09:14:01.514Z,26.03
2022-07-25T09:15:03.535Z,26.05
2022-07-25T09:16:06.020Z,26.07
2022-07-25T09:17:21.857Z,26.10
2022-07-25T09:18:27.294Z,26.13
2022-07-25T09:19:29.107Z,26.14
2022-07-25T09:20:45.422Z,26.18
2022-07-25T09:22:03.555Z,26.22
2022-07-25T09:23:06.144Z,26.28
2022-07-25T09:24:15.930Z,26.29
2022-07-25T09:25:26.643Z,26.31
2022-07-25T09:26:28.310Z,26.33
2022-07-25T09:27:34.499Z,26.35
2022-07-25T09:28:47.196Z,26.36
2022-07-25T09:29:49.208Z,26.38
2022-07-25T09:30:57.306Z,26.40
2022-07-25T09:32:01.450Z,26.43
2022-07-25T09:33:03.122Z,26.45
2022-07-25T09:34:08.470Z,26.48
2022-07-25T09:35:10.517Z,26.51
2022-07-25T09:36:12.759Z,26.54
2022-07-25T09:37:17.591Z,26.55
2022-07-25T09:38:20.914Z,26.54
2022-07-25T09:39:46.037Z,26.53
2022-07-25T09:41:01.456Z,26.53
2022-07-25T09:42:14.803Z,26.54
2022-07-25T09:43:16.630Z,26.58
2022-07-25T09:44:21.644Z,26.60
2022-07-25T09:45:26.012Z,26.62
2022-07-25T09:46:32.469Z,26.63
2022-07-25T09:47:36.782Z,26.63
2022-07-25T09:48:40.717Z,26.66
2022-07-25T09:49:44.906Z,26.68
2022-07-25T09:50:47.037Z,26.71
2022-07-25T09:51:48.824Z,26.73
2022-07-25T09:52:53.191Z,26.76
2022-07-25T09:53:54.993Z,26.78
2022-07-25T09:54:56.674Z,26.82
2022-07-25T09:55:58.989Z,26.86
2022-07-25T09:57:00.703Z,26.91
2022-07-25T09:58:02.408Z,26.95
2022-07-25T09:59:05.705Z,26.97
2022-07-25T10:00:09.260Z,27.00
2022-07-25T10:01:22.613Z,27.02
2022-07-25T10:02:40.733Z,27.06
2022-07-25T10:03:48.256Z,27.11
2022-07-25T10:04:56.791Z,27.15
2022-07-25T10:06:20.783Z,27.18
2022-07-25T10:07:28.225Z,27.21
2022-07-25T10:08:37.873Z,27.23
2022-07-25T10:09:48.735Z,27.25
2022-07-25T10:10:50.675Z,27.28
2022-07-25T10:12:10.124Z,27.29
2022-07-25T10:13:16.929Z,27.31
2022-07-25T10:14:19.655Z,27.33
2022-07-25T10:15:21.439Z,27.34
2022-07-25T10:16:27.417Z,27.36
2022-07-25T10:17:29.274Z,27.38
2022-07-25T10:18:31.742Z,27.40
2022-07-25T10:19:50.053Z,27.42
2022-07-25T10:21:25.037Z,27.47
2022-07-25T10:22:57.530Z,27.54
2022-07-25T10:24:06.353Z,27.59
2022-07-25T10:25:14.590Z,27.63
2022-07-25T10:26:16.482Z,27.67
2022-07-25T10:27:23.813Z,27.70
2022-07-25T10:28:48.096Z,27.72
2022-07-25T10:29:54.205Z,27.76
2022-07-25T10:30:58.976Z,27.80
2022-07-25T10:32:11.547Z,27.84
2022-07-25T10:33:17.667Z,27.89
2022-07-25T10:34:33.285Z,27.92
2022-07-25T10:35:35.415Z,27.96
2022-07-25T10:36:51.034Z,28.00
2022-07-25T10:37:55.879Z,28.05
2022-07-25T10:39:01.087Z,28.10
2022-07-25T10:40:04.008Z,28.13
2022-07-25T10:41:08.899Z,28.15
2022-07-25T10:42:21.866Z,28.17
2022-07-25T10:43:25.576Z,28.19
2022-07-25T10:44:39.296Z,28.20
2022-07-25T10:45:52.914Z,28.22
2022-07-25T10:47:09.099Z,28.25
2022-07-25T10:48:21.157Z,28.28
2022-07-25T10:49:32.156Z,28.33
2022-07-25T10:50:54.331Z,28.38
2022-07-25T10:51:59.161Z,28.43
2022-07-25T10:53:01.638Z,28.47
2022-07-25T10:54:14.946Z,28.52
2022-07-25T10:55:23.975Z,28.59
2022-07-25T10:56:28.807Z,28.63
2022-07-25T10:57:32.191Z,28.69
2022-07-25T10:58:44.513Z,28.73
2022-07-25T10:59:46.820Z,28.79
2022-07-25T11:00:48.499Z,28.87
2022-07-25T11:01:51.299Z,28.95
2022-07-25T11:02:57.417Z,29.03
2022-07-25T11:04:05.618Z,29.12
2022-07-25T11:05:07.601Z,29.20
2022-07-25T11:06:09.321Z,29.26
2022-07-25T11:07:14.676Z,29.32
2022-07-25T11:08:22.254Z,29.38
2022-07-25T11:09:28.292Z,29.45
2022-07-25T11:10:30.483Z,29.51
2022-07-25T11:11:42.110Z,29.58
2022-07-25T11:12:47.159Z,29.67
2022-07-25T11:13:50.149Z,29.76
2022-07-25T11:15:00.664Z,29.82
2022-07-25T11:16:02.392Z,29.90
2022-07-25T11:17:18.582Z,29.97
2022-07-25T11:18:40.699Z,30.06
2022-07-25T11:19:52.663Z,30.16
2022-07-25T11:21:06.892Z,30.24
2022-07-25T11:22:09.410Z,30.31
2022-07-25T11:23:11.121Z,30.38
2022-07-25T11:24:13.467Z,30.46
2022-07-25T11:25:15.167Z,30.54
2022-07-25T11:26:16.846Z,30.60
2022-07-25T11:27:24.524Z,30.66
2022-07-25T11:28:40.447Z,30.72
2022-07-25T11:29:42.303Z,30.78
2022-07-25T11:30:44.023Z,30.82
2022-07-25T11:31:53.298Z,30.88
2022-07-25T11:32:57.981Z,30.95
2022-07-25T11:33:59.927Z,31.01
2022-07-25T11:35:01.843Z,31.07
2022-07-25T11:36:04.856Z,31.13
2022-07-25T11:37:09.975Z,31.20
2022-07-25T11:38:14.826Z,31.27
2022-07-25T11:39:19.009Z,31.34
2022-07-25T11:40:22.670Z,31.42
2022-07-25T11:41:30.885Z,31.51
2022-07-25T11:42:47.840Z,31.60
2022-07-25T11:43:49.755Z,31.69
2022-07-25T11:44:53.045Z,31.75
2022-07-25T11:46:04.368Z,31.80
2022-07-25T11:47:09.516Z,31.87
2022-07-25T11:48:13.441Z,31.92
2022-07-25T11:49:15.324Z,32.00
2022-07-25T11:50:17.470Z,32.08
2022-07-25T11:51:19.682Z,32.16
2022-07-25T11:52:34.800Z,32.24
2022-07-25T11:53:42.206Z,32.32
2022-07-25T11:54:55.034Z,32.40
2022-07-25T11:55:56.704Z,32.48
2022-07-25T11:56:58.633Z,32.55
2022-07-25T11:58:03.482Z,32.62
2022-07-25T11:59:05.566Z,32.71
2022-07-25T12:00:18.583Z,32.78
2022-07-25T12:01:20.252Z,32.87
2022-07-25T12:02:28.215Z,32.94
2022-07-25T12:03:38.184Z,33.03
2022-07-25T12:04:40.002Z,33.12
2022-07-25T12:05:42.027Z,33.18
2022-07-25T12:06:45.655Z,33.25
2022-07-25T12:07:53.116Z,33.31
2022-07-25T12:08:54.876Z,33.38
2022-07-25T12:09:57.987Z,33.46
2022-07-25T12:11:00.690Z,33.53
2022-07-25T12:12:04.635Z,33.59
2022-07-25T12:13:08.760Z,33.63
2022-07-25T12:14:11.074Z,33.64
2022-07-25T12:15:16.359Z,33.67
2022-07-25T12:16:18.250Z,33.74
2022-07-25T12:17:19.991Z,33.82
2022-07-25T12:18:21.755Z,33.90
2022-07-25T12:19:23.485Z,33.94
2022-07-25T12:20:38.179Z,34.00
2022-07-25T12:21:39.824Z,34.07
2022-07-25T12:22:41.937Z,34.13
2022-07-25T12:23:43.849Z,34.19
2022-07-25T12:24:45.507Z,34.26
2022-07-25T12:25:47.883Z,34.31
2022-07-25T12:26:49.578Z,34.37
2022-07-25T12:27:51.691Z,34.42
2022-07-25T12:28:53.472Z,34.46
2022-07-25T12:29:55.172Z,34.50
2022-07-25T12:30:57.094Z,34.53
2022-07-25T12:31:59.092Z,34.57
2022-07-25T12:33:01.356Z,34.62
2022-07-25T12:34:03.909Z,34.68
2022-07-25T12:35:08.457Z,34.71
2022-07-25T12:36:13.819Z,34.69
2022-07-25T12:37:15.540Z,34.63
2022-07-25T12:38:17.495Z,34.61
2022-07-25T12:39:19.366Z,34.61
2022-07-25T12:40:21.984Z,34.63
2022-07-25T12:41:23.717Z,34.66
2022-07-25T12:42:27.125Z,34.71
2022-07-25T12:43:28.823Z,34.74
2022-07-25T12:44:30.509Z,34.78
2022-07-25T12:45:32.846Z,34.84
2022-07-25T12:46:36.024Z,34.91
2022-07-25T12:47:38.210Z,34.95
2022-07-25T12:48:40.037Z,34.96
2022-07-25T12:49:41.915Z,34.97
2022-07-25T12:50:44.623Z,34.99
2022-07-25T12:51:46.395Z,35.03
2022-07-25T12:52:48.347Z,35.09
2022-07-25T12:53:50.205Z,35.16
2022-07-25T12:54:52.104Z,35.23
2022-07-25T12:55:53.791Z,35.32
2022-07-25T12:56:55.560Z,35.41
2022-07-25T12:57:57.334Z,35.50
2022-07-25T12:58:59.079Z,35.58
2022-07-25T13:00:00.951Z,35.67
2022-07-25T13:01:03.404Z,35.74
2022-07-25T13:02:06.007Z,35.81
2022-07-25T13:03:07.800Z,35.88
2022-07-25T13:04:09.470Z,35.97
2022-07-25T13:05:11.502Z,36.06
2022-07-25T13:06:13.299Z,36.17
2022-07-25T13:07:16.166Z,36.26
2022-07-25T13:08:18.273Z,36.33
2022-07-25T13:09:20.038Z,36.41
2022-07-25T13:10:22.172Z,36.50
2022-07-25T13:11:23.849Z,36.59
2022-07-25T13:12:25.555Z,36.65
2022-07-25T13:13:27.266Z,36.68
2022-07-25T13:14:28.922Z,36.70
2022-07-25T13:15:30.717Z,36.71
2022-07-25T13:16:34.560Z,36.73
2022-07-25T13:17:37.271Z,36.74
2022-07-25T13:18:38.993Z,36.74
2022-07-25T13:19:40.698Z,36.74
2022-07-25T13:20:42.419Z,36.74
2022-07-25T13:21:44.591Z,36.74
2022-07-25T13:22:46.321Z,36.77
2022-07-25T13:23:48.031Z,36.81
2022-07-25T13:24:49.936Z,36.85
2022-07-25T13:25:52.678Z,36.90
2022-07-25T13:26:54.591Z,36.96
2022-07-25T13:27:56.257Z,37.04
2022-07-25T13:29:00.115Z,37.12
2022-07-25T13:30:01.887Z,37.16
2022-07-25T13:31:06.897Z,37.21
2022-07-25T13:32:08.734Z,37.26
2022-07-25T13:33:11.026Z,37.32
2022-07-25T13:34:12.723Z,37.36
2022-07-25T13:35:17.773Z,37.42
2022-07-25T13:36:22.219Z,37.47
2022-07-25T13:37:24.214Z,37.51